Accueil
METAR-TAF:

METAR-TAF

Aéroports :

Aéroport de Gran Canaria

Grande Canarie, Espagne

latitude: 27-56N, longitude: 015-23W, altitude: 23 m

Observation

Le bulletin a été fait il y a 23 minutes, à 16:00 UTC
Vent 6 kt de nord-est
Température 22°C
Humidité 69%
Pression 1014 hPa
Visibilité 10 km ou plus
Quelques nuages à une hauteur de 2000 ft
Nuages épars à une hauteur de 3000 ft

METAR: GCLP 211600Z 05006KT 9999 FEW020 SCT030 22/16 Q1014 NOSIG

Heure: 16:23 (16:23 UTC)

Prévision

Le bulletin a été fait il y a 2 heures et 23 minutes, à 14:00 UTC
Prévision valable du 21 à 15 UTC au 22 à 15 UTC
Vent 6 kt de sud/sud-est
Visibilité 10 km ou plus
Nuages fragmentés à une hauteur de 3500 ft
Probabilité 30% :
Temporairement
du 22 à 10 UTC au 22 à 14 UTC
Vent 10 kt de nord-ouest

TAF: GCLP 211400Z 2115/2215 15006KT 9999 BKN035 TX25/2214Z TN17/2207Z PROB30 TEMPO 2210/2214 32010KT

Observations et prévisions météorologiques de plus de 4000 aéroports (messages METAR et TAF).

Les stations disponibles sont représentées par des disques jaunes et rouges sur la carte.

Passer la souris dessus pour voir le nom de la station.

Cliquer dessus pour voir les observations et prévisions météorologiques.

Pour changer de carte: cliquez sur les boutons verts avec une croix noire pour zoomer, sur le bouton vert avec un tiret pour effectuer un zoom arrière, ou sur les flèches vertes pour les cartes adjacentes.


METAR-TAF: